Time;durP1;ratioP1;P1;durP2;ratioP2;P2;SDS_P1;SDS_P2;PMS_P1;PMS_P2;Temp;Humidity;BMP_temperature;BMP_pressure;BME280_temperature;BME280_humidity;BME280_pressure;Samples;Min_cycle;Max_cycle;Signal;HPM_P1;HPM_P2
2022/06/11 00:00:12;;;;;;;8.45;7.65;;;16.60;99.90;;;;;;2095979;28;20503;-69
2022/06/11 00:01:19;;;;;;;8.25;7.43;;;16.60;99.90;;;;;;2095982;28;20098;-69
2022/06/11 00:02:20;;;;;;;8.00;7.30;;;16.60;99.90;;;;;;2096040;28;20033;-69
2022/06/11 00:03:21;;;;;;;8.35;7.55;;;16.60;99.90;;;;;;2095614;28;20023;-68
2022/06/11 00:04:33;;;;;;;8.40;7.60;;;16.60;99.90;;;;;;2096115;28;20553;-68
2022/06/11 00:05:34;;;;;;;8.00;7.25;;;16.60;99.90;;;;;;2096226;28;20102;-69
2022/06/11 00:06:42;;;;;;;8.13;7.43;;;16.60;99.90;;;;;;2095899;28;20041;-68
2022/06/11 00:07:43;;;;;;;9.98;8.13;;;16.50;99.90;;;;;;2095953;28;20075;-69
2022/06/11 00:08:44;;;;;;;8.05;7.25;;;16.50;99.90;;;;;;2095954;28;20386;-67
2022/06/11 00:09:46;;;;;;;8.40;7.60;;;16.50;99.90;;;;;;2095960;28;20094;-68
2022/06/11 00:10:48;;;;;;;8.63;7.82;;;16.50;99.90;;;;;;2095673;28;20111;-68
2022/06/11 00:11:51;;;;;;;11.45;8.30;;;16.50;99.90;;;;;;2095908;28;20041;-69
2022/06/11 00:12:52;;;;;;;8.40;7.60;;;16.50;99.90;;;;;;2086978;28;20045;-69
2022/06/11 00:13:54;;;;;;;8.60;7.80;;;16.40;99.90;;;;;;2086875;28;20049;-69
2022/06/11 00:14:54;;;;;;;8.35;7.55;;;16.40;99.90;;;;;;2095975;28;20071;-73
2022/06/11 00:15:56;;;;;;;9.50;7.60;;;16.40;99.90;;;;;;2094696;28;20020;-70
2022/06/11 00:16:57;;;;;;;8.10;7.30;;;16.40;99.90;;;;;;2087565;28;20107;-71
2022/06/11 00:17:58;;;;;;;8.10;7.30;;;16.40;99.90;;;;;;2087534;28;20120;-71
2022/06/11 00:19:01;;;;;;;7.57;6.88;;;16.40;99.90;;;;;;2087452;28;20653;-70
2022/06/11 00:20:04;;;;;;;8.77;7.40;;;16.40;99.90;;;;;;2087498;28;20027;-70
2022/06/11 00:21:05;;;;;;;8.00;7.30;;;16.30;99.90;;;;;;2087578;28;20029;-68
2022/06/11 00:22:06;;;;;;;9.02;7.72;;;16.40;99.90;;;;;;2087548;28;20064;-69
2022/06/11 00:23:07;;;;;;;9.65;7.45;;;16.30;99.90;;;;;;2087265;28;20029;-69
2022/06/11 00:24:08;;;;;;;9.00;8.20;;;16.30;99.90;;;;;;2087517;28;20499;-69
2022/06/11 00:25:10;;;;;;;9.00;8.00;;;16.30;99.90;;;;;;2070412;28;20038;-69
2022/06/11 00:26:11;;;;;;;9.07;8.13;;;16.30;99.90;;;;;;2070875;28;20048;-70
2022/06/11 00:27:14;;;;;;;8.93;7.65;;;16.30;99.90;;;;;;2078636;28;20082;-70
2022/06/11 00:28:15;;;;;;;8.32;7.53;;;16.30;99.90;;;;;;2070956;28;20065;-68
2022/06/11 00:29:18;;;;;;;8.27;7.47;;;16.30;99.90;;;;;;2078871;28;20029;-68
2022/06/11 00:30:19;;;;;;;8.90;7.68;;;16.20;99.90;;;;;;2078587;28;20071;-68
2022/06/11 00:31:20;;;;;;;8.65;7.82;;;16.20;99.90;;;;;;2078973;28;20047;-69
2022/06/11 00:32:20;;;;;;;10.05;8.07;;;16.20;99.90;;;;;;2087842;28;20614;-68
2022/06/11 00:33:21;;;;;;;8.98;7.57;;;16.20;99.90;;;;;;2087616;28;20056;-69
2022/06/11 00:34:22;;;;;;;8.05;7.25;;;16.20;99.90;;;;;;2088101;28;20032;-68
2022/06/11 00:35:24;;;;;;;8.10;7.45;;;16.20;99.90;;;;;;2087947;28;20458;-68
2022/06/11 00:36:25;;;;;;;8.00;7.40;;;16.10;99.90;;;;;;2088395;28;20021;-68
2022/06/11 00:37:26;;;;;;;8.45;7.65;;;16.10;99.90;;;;;;2088410;28;20495;-69
2022/06/11 00:38:26;;;;;;;8.38;7.57;;;16.10;99.90;;;;;;2088346;28;20013;-69
2022/06/11 00:39:31;;;;;;;8.43;7.63;;;16.10;99.90;;;;;;2088295;28;20625;-68
2022/06/11 00:40:34;;;;;;;8.68;7.88;;;16.10;99.90;;;;;;2087727;28;20146;-69
2022/06/11 00:41:38;;;;;;;9.15;7.78;;;16.00;99.90;;;;;;2088152;28;20119;-70
2022/06/11 00:42:39;;;;;;;8.38;7.55;;;16.00;99.90;;;;;;2087888;28;20033;-70
2022/06/11 00:43:42;;;;;;;9.45;8.23;;;16.00;99.90;;;;;;2087618;28;20083;-70
2022/06/11 00:44:43;;;;;;;8.30;7.60;;;16.00;99.90;;;;;;2088076;28;20700;-70
2022/06/11 00:46:19;;;;;;;8.55;7.85;;;16.00;99.90;;;;;;2088074;28;20029;-69
2022/06/11 00:47:23;;;;;;;8.88;8.07;;;16.00;99.90;;;;;;2087246;28;20025;-70
2022/06/11 00:48:35;;;;;;;9.88;8.20;;;15.90;99.90;;;;;;2087466;28;20029;-69
2022/06/11 00:49:44;;;;;;;8.60;7.80;;;15.90;99.90;;;;;;2087438;28;20142;-69
2022/06/11 00:51:20;;;;;;;8.40;7.60;;;15.90;99.90;;;;;;2087404;28;20036;-69
2022/06/11 00:52:24;;;;;;;8.98;8.07;;;15.90;99.90;;;;;;2086980;28;20036;-69
2022/06/11 00:53:33;;;;;;;9.98;8.10;;;15.90;99.90;;;;;;2087176;28;20579;-69
2022/06/11 00:54:35;;;;;;;8.68;7.80;;;15.90;99.90;;;;;;2088031;28;20391;-70
2022/06/11 00:55:38;;;;;;;8.95;7.80;;;15.90;99.90;;;;;;2088894;28;20021;-68
2022/06/11 00:56:44;;;;;;;8.80;8.00;;;15.80;99.90;;;;;;2089051;28;20103;-69
2022/06/11 00:57:53;;;;;;;8.70;7.82;;;15.80;99.90;;;;;;2088976;28;20140;-69
2022/06/11 00:58:56;;;;;;;9.23;8.32;;;15.80;99.90;;;;;;2088938;28;20112;-68
2022/06/11 01:00:06;;;;;;;8.98;8.07;;;15.80;99.90;;;;;;2080033;28;20037;-69
2022/06/11 01:01:07;;;;;;;8.90;8.00;;;15.80;99.90;;;;;;2081168;28;20048;-69
2022/06/11 01:02:09;;;;;;;8.82;7.93;;;15.80;99.90;;;;;;2088996;28;20426;-69
2022/06/11 01:03:13;;;;;;;8.60;7.78;;;15.80;99.90;;;;;;2079852;28;20041;-69
2022/06/11 01:04:41;;;;;;;10.73;8.63;;;15.80;99.90;;;;;;2080763;28;20017;-69
2022/06/11 01:05:47;;;;;;;9.07;8.13;;;15.70;99.90;;;;;;2079859;28;20582;-69
2022/06/11 01:06:56;;;;;;;9.32;8.40;;;15.70;99.90;;;;;;2080928;28;20025;-69
2022/06/11 01:08:05;;;;;;;12.25;9.27;;;15.70;99.90;;;;;;2088982;28;20056;-69
2022/06/11 01:09:31;;;;;;;9.23;8.27;;;15.70;99.90;;;;;;2080032;28;20037;-69
2022/06/11 01:11:01;;;;;;;9.60;8.60;;;15.70;99.90;;;;;;2083630;28;20029;-70
2022/06/11 01:12:37;;;;;;;9.70;8.80;;;15.70;99.90;;;;;;2081607;28;20037;-67
2022/06/11 01:14:05;;;;;;;10.52;9.43;;;15.60;99.90;;;;;;2084325;28;20606;-70
2022/06/11 01:15:25;;;;;;;9.95;8.95;;;15.60;99.90;;;;;;2088672;28;20506;-71
2022/06/11 01:16:55;;;;;;;10.45;9.43;;;15.60;99.90;;;;;;2088871;28;20488;-69
2022/06/11 01:18:23;;;;;;;9.93;8.93;;;15.60;99.90;;;;;;2081376;28;20032;-69
2022/06/11 01:19:57;;;;;;;11.00;9.55;;;15.60;99.90;;;;;;2088923;28;20066;-69
2022/06/11 01:21:01;;;;;;;10.10;9.20;;;15.60;99.90;;;;;;2088847;28;20029;-69
2022/06/11 01:22:14;;;;;;;10.18;9.18;;;15.60;99.90;;;;;;2080027;28;20384;-69
2022/06/11 01:23:23;;;;;;;9.20;8.38;;;15.60;99.90;;;;;;2081264;28;20411;-69
2022/06/11 01:24:53;;;;;;;9.38;8.57;;;15.60;99.90;;;;;;2088811;28;20024;-69
2022/06/11 01:26:24;;;;;;;10.15;9.15;;;15.60;99.90;;;;;;2088758;28;20036;-69
2022/06/11 01:28:09;;;;;;;9.93;9.00;;;15.50;99.90;;;;;;2039100;29;20036;-69
2022/06/11 01:29:48;;;;;;;9.98;8.98;;;15.50;99.90;;;;;;2084049;28;20568;-69
2022/06/11 01:31:03;;;;;;;12.35;9.18;;;15.50;99.90;;;;;;2088666;28;20414;-69
2022/06/11 01:32:22;;;;;;;10.18;9.18;;;15.40;99.90;;;;;;2088484;28;20033;-69
2022/06/11 01:33:49;;;;;;;9.70;8.80;;;15.40;99.90;;;;;;2088306;28;20025;-68
2022/06/11 01:35:01;;;;;;;11.00;9.00;;;15.40;99.90;;;;;;2088506;28;20025;-68
2022/06/11 01:36:16;;;;;;;10.07;9.07;;;15.40;99.90;;;;;;2088681;28;20032;-68
2022/06/11 01:37:28;;;;;;;8.68;7.88;;;15.40;99.90;;;;;;2080043;28;20057;-68
2022/06/11 01:38:34;;;;;;;9.52;8.18;;;15.40;99.90;;;;;;2081685;28;20073;-68
2022/06/11 01:39:58;;;;;;;9.40;8.43;;;15.40;99.90;;;;;;2089004;28;20032;-68
2022/06/11 01:41:18;;;;;;;8.90;8.00;;;15.40;99.90;;;;;;2080139;28;20652;-68
2022/06/11 01:42:39;;;;;;;9.45;8.55;;;15.40;99.90;;;;;;2082814;28;20264;-68
2022/06/11 01:43:42;;;;;;;;;;;15.40;99.90;;;;;;2079794;28;20095;-68
2022/06/11 01:44:44;;;;;;;10.13;8.23;;;15.30;99.90;;;;;;2080116;28;19974;-69
2022/06/11 01:45:47;;;;;;;8.90;8.00;;;15.30;99.90;;;;;;2088694;28;20068;-68
2022/06/11 01:46:53;;;;;;;9.43;8.55;;;15.40;99.90;;;;;;2079754;28;20471;-68
2022/06/11 01:47:54;;;;;;;8.63;7.93;;;15.30;99.90;;;;;;2080640;28;20056;-69
2022/06/11 01:49:26;;;;;;;9.27;8.38;;;15.30;99.90;;;;;;2088624;28;20028;-69
2022/06/11 01:50:30;;;;;;;9.30;8.40;;;15.30;99.90;;;;;;2088447;28;20136;-70
2022/06/11 01:52:00;;;;;;;10.32;9.15;;;15.30;99.90;;;;;;2088540;28;20046;-69
2022/06/11 01:53:24;;;;;;;9.88;8.88;;;15.30;99.90;;;;;;2057363;28;20643;-73
2022/06/11 01:54:36;;;;;;;10.10;8.48;;;15.30;99.90;;;;;;2074508;28;20464;-68
2022/06/11 01:56:04;;;;;;;9.73;8.50;;;15.30;99.90;;;;;;2088714;28;20033;-69
2022/06/11 01:57:32;;;;;;;10.63;9.20;;;15.30;99.90;;;;;;2065501;28;20040;-68
2022/06/11 01:59:11;;;;;;;10.27;9.27;;;15.30;99.90;;;;;;2075121;28;20037;-68
2022/06/11 02:00:26;;;;;;;9.25;8.45;;;15.20;99.90;;;;;;2084795;28;20029;-70
2022/06/11 02:01:50;;;;;;;8.85;8.15;;;15.20;99.90;;;;;;2088542;28;20021;-70
2022/06/11 02:03:11;;;;;;;9.90;8.93;;;15.20;99.90;;;;;;2079431;28;20029;-70
2022/06/11 02:04:15;;;;;;;9.85;8.88;;;15.20;99.90;;;;;;2082483;28;20052;-71
2022/06/11 02:05:40;;;;;;;9.90;9.00;;;15.20;99.90;;;;;;2079236;28;20082;-69
2022/06/11 02:07:01;;;;;;;10.88;9.10;;;15.10;99.90;;;;;;2082483;28;20495;-70
2022/06/11 02:08:23;;;;;;;9.30;8.40;;;15.10;99.90;;;;;;2088649;28;20502;-69
2022/06/11 02:09:45;;;;;;;9.80;8.80;;;15.10;99.90;;;;;;2079643;28;20124;-69
2022/06/11 02:10:46;;;;;;;9.60;8.70;;;15.10;99.90;;;;;;2082598;28;20782;-70
2022/06/11 02:14:29;;;;;;;9.63;8.63;;;15.10;99.90;;;;;;2088543;28;20024;-69
2022/06/11 02:15:39;;;;;;;9.63;8.63;;;15.10;99.90;;;;;;2088238;28;20043;-70
2022/06/11 02:16:55;;;;;;;10.32;9.23;;;15.00;99.90;;;;;;2088464;28;20122;-70
2022/06/11 02:18:01;;;;;;;9.60;8.75;;;15.00;99.90;;;;;;2088371;28;20024;-69
2022/06/11 02:19:09;;;;;;;9.50;8.60;;;15.00;99.90;;;;;;2088393;28;20482;-70
2022/06/11 02:20:16;;;;;;;9.32;8.40;;;15.00;99.90;;;;;;2088195;28;20031;-70
2022/06/11 02:21:24;;;;;;;8.68;7.97;;;15.00;99.90;;;;;;2088251;28;20033;-70
2022/06/11 02:22:41;;;;;;;9.10;8.30;;;14.90;99.90;;;;;;2087813;28;20067;-70
2022/06/11 02:23:55;;;;;;;9.40;8.50;;;14.90;99.90;;;;;;2079364;28;20403;-70
2022/06/11 02:25:19;;;;;;;9.48;8.65;;;14.90;99.90;;;;;;2081330;28;20649;-70
2022/06/11 02:26:25;;;;;;;9.10;8.30;;;14.90;99.90;;;;;;2088314;28;20063;-70
2022/06/11 02:27:29;;;;;;;9.07;8.18;;;14.90;99.90;;;;;;2088342;28;20031;-70
2022/06/11 02:28:35;;;;;;;9.75;8.10;;;14.90;99.90;;;;;;2088139;28;20026;-69
2022/06/11 02:29:37;;;;;;;10.48;8.63;;;14.90;99.90;;;;;;2088343;28;20032;-69
2022/06/11 02:30:42;;;;;;;9.80;8.77;;;14.90;99.90;;;;;;2088488;28;20029;-70
2022/06/11 02:31:50;;;;;;;9.75;8.70;;;14.90;99.90;;;;;;2088192;28;20107;-70
2022/06/11 02:32:52;;;;;;;9.40;8.40;;;14.90;99.90;;;;;;2087841;28;20025;-69
2022/06/11 02:33:54;;;;;;;9.15;8.32;;;14.90;99.90;;;;;;2088224;28;20040;-69
2022/06/11 02:34:58;;;;;;;9.80;8.90;;;14.90;99.90;;;;;;2079214;28;20099;-70
2022/06/11 02:36:27;;;;;;;9.75;8.85;;;14.90;99.90;;;;;;2079938;28;20148;-70
2022/06/11 02:37:32;;;;;;;9.68;8.68;;;14.90;99.90;;;;;;2088199;28;20048;-70
2022/06/11 02:38:33;;;;;;;9.35;8.45;;;14.80;99.90;;;;;;2088214;28;20044;-70
2022/06/11 02:39:37;;;;;;;9.57;8.68;;;14.80;99.90;;;;;;2079205;28;20029;-70
2022/06/11 02:40:42;;;;;;;9.35;8.45;;;14.80;99.90;;;;;;2079584;28;20416;-70
2022/06/11 02:41:44;;;;;;;9.75;8.75;;;14.80;99.90;;;;;;2088158;28;20025;-70
2022/06/11 02:42:46;;;;;;;9.68;8.63;;;14.80;99.90;;;;;;2087717;28;20046;-70
2022/06/11 02:43:47;;;;;;;9.35;8.45;;;14.80;99.90;;;;;;2088065;28;20033;-70
2022/06/11 02:44:48;;;;;;;9.73;8.80;;;14.80;99.90;;;;;;2088077;28;20074;-70
2022/06/11 02:45:50;;;;;;;9.95;9.05;;;14.80;99.90;;;;;;2079330;28;20090;-70
2022/06/11 02:46:50;;;;;;;9.98;8.75;;;14.80;99.90;;;;;;2079228;28;20026;-70
2022/06/11 02:47:53;;;;;;;10.25;9.25;;;14.80;99.90;;;;;;2079195;28;20036;-70
2022/06/11 02:48:55;;;;;;;10.55;9.60;;;14.80;99.90;;;;;;2079432;28;20037;-70
2022/06/11 02:49:56;;;;;;;10.38;9.48;;;14.80;99.90;;;;;;2087925;28;20036;-70
2022/06/11 02:50:56;;;;;;;9.80;8.80;;;14.70;99.90;;;;;;2088061;28;20040;-70
2022/06/11 02:52:01;;;;;;;9.15;8.35;;;14.70;99.90;;;;;;2088039;28;20074;-70
2022/06/11 02:53:05;;;;;;;9.70;8.70;;;14.70;99.90;;;;;;2087813;28;20033;-70
2022/06/11 02:54:06;;;;;;;9.55;8.65;;;14.80;99.90;;;;;;2088254;28;20104;-70
2022/06/11 02:55:07;;;;;;;11.00;9.05;;;14.70;99.90;;;;;;2087737;28;20517;-70
2022/06/11 02:56:07;;;;;;;9.95;9.05;;;14.70;99.90;;;;;;2088078;28;20025;-70
2022/06/11 02:57:14;;;;;;;10.13;9.13;;;14.80;99.90;;;;;;2088013;28;20588;-70
2022/06/11 02:58:14;;;;;;;10.77;8.80;;;14.70;99.90;;;;;;2088053;28;20100;-69
2022/06/11 02:59:15;;;;;;;10.15;9.10;;;14.70;99.90;;;;;;2088060;28;20025;-69
2022/06/11 03:00:24;;;;;;;9.70;8.70;;;14.70;99.90;;;;;;2087945;28;20036;-70
2022/06/11 03:01:26;;;;;;;9.45;8.63;;;14.70;99.90;;;;;;2087872;28;20471;-69
2022/06/11 03:02:27;;;;;;;9.88;8.98;;;14.70;99.90;;;;;;2087708;28;20496;-70
2022/06/11 03:03:28;;;;;;;9.38;8.55;;;14.80;99.90;;;;;;2087739;28;20096;-70
2022/06/11 03:04:31;;;;;;;11.23;9.05;;;14.70;99.90;;;;;;2079194;28;20037;-70
2022/06/11 03:05:34;;;;;;;10.07;9.10;;;14.80;99.90;;;;;;2071211;28;20103;-70
2022/06/11 03:06:34;;;;;;;10.02;9.10;;;14.70;99.90;;;;;;2079171;28;20033;-70
2022/06/11 03:07:35;;;;;;;9.48;8.57;;;14.70;99.90;;;;;;2079078;28;20544;-70
2022/06/11 03:08:36;;;;;;;9.32;8.52;;;14.70;99.90;;;;;;2079155;28;20084;-70
2022/06/11 03:09:38;;;;;;;9.57;8.68;;;14.70;99.90;;;;;;2079128;28;20038;-70
2022/06/11 03:10:39;;;;;;;9.68;8.75;;;14.70;99.90;;;;;;2087887;28;20049;-70
2022/06/11 03:11:40;;;;;;;10.10;8.85;;;14.70;99.90;;;;;;2087793;28;20090;-69
2022/06/11 03:12:41;;;;;;;9.70;8.80;;;14.80;99.90;;;;;;2087359;28;20037;-70
2022/06/11 03:13:41;;;;;;;11.88;8.65;;;14.80;99.90;;;;;;2078981;28;20045;-70
2022/06/11 03:14:43;;;;;;;9.65;8.75;;;14.80;99.90;;;;;;2078767;28;20531;-70
2022/06/11 03:15:43;;;;;;;9.75;8.52;;;14.80;99.90;;;;;;2087915;28;20387;-70
2022/06/11 03:16:45;;;;;;;9.52;8.63;;;14.80;99.90;;;;;;2087890;28;20063;-70
2022/06/11 03:17:48;;;;;;;11.07;8.57;;;14.80;99.90;;;;;;2087452;28;20104;-69
2022/06/11 03:18:48;;;;;;;9.80;8.90;;;14.80;99.90;;;;;;2087524;28;20079;-70
2022/06/11 03:19:50;;;;;;;9.65;8.80;;;14.80;99.90;;;;;;2087850;28;20033;-69
2022/06/11 03:20:51;;;;;;;10.48;9.10;;;14.80;99.90;;;;;;2078863;28;20029;-70
2022/06/11 03:21:55;;;;;;;10.40;9.40;;;14.70;99.90;;;;;;2078907;28;20029;-70
2022/06/11 03:22:56;;;;;;;9.98;9.07;;;14.70;99.90;;;;;;2087346;28;20585;-70
2022/06/11 03:23:57;;;;;;;10.15;9.15;;;14.80;99.90;;;;;;2088016;28;20025;-70
2022/06/11 03:24:58;;;;;;;9.77;8.98;;;14.80;99.90;;;;;;2087725;28;20025;-70
2022/06/11 03:26:00;;;;;;;10.07;9.25;;;14.80;99.90;;;;;;2088023;28;20102;-70
2022/06/11 03:27:02;;;;;;;9.55;8.70;;;14.80;99.90;;;;;;2087930;28;20395;-70
2022/06/11 03:28:11;;;;;;;9.70;8.85;;;14.80;99.90;;;;;;2087910;28;20526;-69
2022/06/11 03:29:13;;;;;;;10.57;9.50;;;14.80;99.90;;;;;;2078927;28;20472;-70
2022/06/11 03:30:15;;;;;;;10.23;9.10;;;14.80;99.90;;;;;;2079105;28;20314;-70
2022/06/11 03:31:16;;;;;;;9.80;8.80;;;14.80;99.90;;;;;;2087743;28;20033;-70
2022/06/11 03:32:18;;;;;;;9.82;8.82;;;14.90;99.90;;;;;;2087697;28;20024;-69
2022/06/11 03:33:21;;;;;;;9.88;8.98;;;14.90;99.90;;;;;;2070404;28;20037;-70
2022/06/11 03:34:22;;;;;;;9.82;8.82;;;14.90;99.90;;;;;;2071524;28;20823;-69
2022/06/11 03:35:24;;;;;;;10.10;9.07;;;14.90;99.90;;;;;;2070939;28;20058;-70
2022/06/11 03:36:25;;;;;;;9.75;8.85;;;14.90;99.90;;;;;;2079001;28;20025;-69
2022/06/11 03:37:26;;;;;;;9.52;8.65;;;14.90;99.90;;;;;;2079026;28;20049;-70
2022/06/11 03:38:27;;;;;;;9.88;8.90;;;14.90;99.90;;;;;;2070692;28;20041;-69
2022/06/11 03:39:28;;;;;;;9.57;8.70;;;14.90;99.90;;;;;;2079008;28;20026;-70
2022/06/11 03:40:29;;;;;;;9.07;8.38;;;14.90;99.90;;;;;;2087625;28;20028;-70
2022/06/11 03:41:30;;;;;;;9.48;8.52;;;15.00;99.90;;;;;;2087786;28;20097;-70
2022/06/11 03:42:31;;;;;;;9.77;8.77;;;15.00;99.90;;;;;;2078708;28;20645;-69
2022/06/11 03:43:33;;;;;;;9.45;8.65;;;15.00;99.90;;;;;;2078944;28;20076;-70
2022/06/11 03:44:35;;;;;;;9.35;8.55;;;15.00;99.90;;;;;;2078645;28;20040;-70
2022/06/11 03:45:36;;;;;;;9.30;8.50;;;15.00;99.90;;;;;;2079220;28;20404;-69
2022/06/11 03:46:37;;;;;;;10.00;9.10;;;15.10;99.90;;;;;;2087859;28;20075;-69
2022/06/11 03:47:38;;;;;;;10.00;9.07;;;15.10;99.90;;;;;;2078989;28;20502;-71
2022/06/11 03:48:39;;;;;;;9.55;8.70;;;15.10;99.90;;;;;;2078794;28;20499;-69
2022/06/11 03:49:40;;;;;;;9.45;8.55;;;15.10;99.90;;;;;;2078738;28;20044;-69
2022/06/11 03:50:40;;;;;;;9.45;8.55;;;15.10;99.90;;;;;;2070638;28;20121;-69
2022/06/11 03:51:42;;;;;;;9.63;8.73;;;15.20;99.90;;;;;;2078922;28;20040;-69
2022/06/11 03:52:43;;;;;;;9.63;8.68;;;15.20;99.90;;;;;;2078700;28;20051;-69
2022/06/11 03:53:44;;;;;;;9.18;8.38;;;15.20;99.90;;;;;;2087460;28;20491;-69
2022/06/11 03:54:46;;;;;;;10.30;9.30;;;15.20;99.90;;;;;;2087590;28;20111;-70
2022/06/11 03:55:46;;;;;;;9.60;8.70;;;15.20;99.90;;;;;;2078837;28;20664;-70
2022/06/11 03:56:49;;;;;;;9.63;8.80;;;15.30;99.90;;;;;;2079134;28;20026;-68
2022/06/11 03:57:51;;;;;;;9.57;8.75;;;15.30;99.90;;;;;;2078873;28;20116;-68
2022/06/11 03:58:53;;;;;;;10.27;9.38;;;15.30;99.90;;;;;;2078975;28;20466;-69
2022/06/11 03:59:54;;;;;;;9.70;8.80;;;15.30;99.90;;;;;;2087663;28;20036;-68
2022/06/11 04:02:31;;;;;;;10.07;9.07;;;15.40;99.90;;;;;;2058691;28;20580;-69
2022/06/11 04:03:33;;;;;;;9.10;8.20;;;15.70;99.90;;;;;;2046037;29;20031;-69
2022/06/11 04:04:33;;;;;;;9.30;8.32;;;15.90;99.90;;;;;;2048420;28;20516;-69
2022/06/11 04:05:34;;;;;;;8.45;7.63;;;16.10;99.90;;;;;;2078869;28;20501;-68
2022/06/11 04:06:40;;;;;;;9.30;7.55;;;16.40;99.90;;;;;;2070645;28;20037;-68
2022/06/11 04:07:42;;;;;;;8.23;7.30;;;16.60;99.90;;;;;;2079852;28;20072;-68
2022/06/11 04:08:43;;;;;;;8.02;7.32;;;16.80;99.90;;;;;;2078713;28;20041;-68
2022/06/11 04:09:44;;;;;;;8.13;7.32;;;17.10;99.90;;;;;;2062595;28;20046;-69
2022/06/11 04:10:46;;;;;;;7.65;6.93;;;17.20;99.90;;;;;;2062484;28;20457;-68
2022/06/11 04:11:47;;;;;;;7.75;7.00;;;17.30;99.90;;;;;;2079007;28;20131;-69
2022/06/11 04:12:48;;;;;;;7.90;7.20;;;17.40;99.90;;;;;;2087274;28;20102;-68
2022/06/11 04:13:50;;;;;;;7.22;6.57;;;17.50;99.90;;;;;;2087859;28;20510;-69
2022/06/11 04:14:51;;;;;;;7.90;7.20;;;17.60;99.90;;;;;;2078900;28;20048;-69
2022/06/11 04:15:53;;;;;;;7.32;6.63;;;17.70;99.90;;;;;;2079106;28;20032;-69
2022/06/11 04:17:01;;;;;;;7.53;6.80;;;17.80;99.90;;;;;;2079090;28;20025;-68
2022/06/11 04:18:04;;;;;;;7.43;6.75;;;17.80;99.90;;;;;;2071692;28;20515;-69
2022/06/11 04:19:08;;;;;;;6.95;6.35;;;17.90;99.90;;;;;;2079251;28;20025;-69
2022/06/11 04:20:11;;;;;;;7.55;6.90;;;17.90;99.90;;;;;;2078837;28;20029;-70
2022/06/11 04:21:13;;;;;;;7.40;6.70;;;18.00;99.90;;;;;;2079134;28;20029;-69
2022/06/11 04:22:15;;;;;;;9.68;6.80;;;18.10;99.90;;;;;;2087747;28;20033;-69
2022/06/11 04:23:16;;;;;;;7.22;6.57;;;18.20;99.90;;;;;;2087385;28;20021;-69
2022/06/11 04:24:18;;;;;;;6.82;6.10;;;18.30;99.90;;;;;;2078741;28;20083;-70
2022/06/11 04:25:19;;;;;;;7.03;6.43;;;18.50;99.90;;;;;;2078916;28;20606;-68
2022/06/11 04:26:27;;;;;;;8.10;6.60;;;18.70;99.90;;;;;;2087712;28;20033;-69
2022/06/11 04:27:28;;;;;;;7.25;6.30;;;18.90;99.90;;;;;;2087680;28;20032;-69
2022/06/11 04:28:30;;;;;;;6.88;6.28;;;19.00;99.90;;;;;;2078877;28;20037;-69
2022/06/11 04:29:34;;;;;;;7.15;6.28;;;19.20;99.90;;;;;;2071470;28;20026;-68
2022/06/11 04:30:35;;;;;;;6.82;6.22;;;19.40;99.90;;;;;;2072655;28;20092;-69
2022/06/11 04:31:38;;;;;;;6.75;6.05;;;19.50;99.90;;;;;;2080381;28;20043;-69
2022/06/11 04:32:38;;;;;;;7.70;5.95;;;19.70;99.90;;;;;;2088853;28;20029;-69
2022/06/11 04:33:39;;;;;;;6.53;5.90;;;19.80;99.90;;;;;;2089292;28;20072;-68
2022/06/11 04:34:40;;;;;;;6.03;5.50;;;20.00;99.90;;;;;;2089242;28;20041;-69
2022/06/11 04:35:40;;;;;;;7.97;6.00;;;20.10;99.90;;;;;;2089043;28;20028;-68
2022/06/11 04:36:44;;;;;;;6.43;5.85;;;20.40;99.90;;;;;;2089391;28;20017;-69
2022/06/11 04:37:45;;;;;;;6.68;5.55;;;20.50;99.90;;;;;;2089315;28;20033;-68
2022/06/11 04:38:45;;;;;;;6.00;5.50;;;20.70;99.10;;;;;;2089251;28;20526;-69
2022/06/11 04:39:51;;;;;;;9.00;5.43;;;20.90;98.30;;;;;;2089132;28;20021;-70
2022/06/11 04:40:53;;;;;;;8.95;5.32;;;21.10;97.00;;;;;;2089258;28;20040;-69
2022/06/11 04:41:54;;;;;;;5.57;5.07;;;21.30;96.30;;;;;;2089605;28;20017;-70
2022/06/11 04:42:55;;;;;;;5.18;4.72;;;21.60;95.20;;;;;;2088807;28;20036;-69
2022/06/11 04:43:56;;;;;;;5.13;4.63;;;21.80;94.40;;;;;;2089108;28;20098;-70
2022/06/11 04:44:57;;;;;;;5.53;4.97;;;22.00;93.40;;;;;;2089349;28;20097;-70
2022/06/11 04:45:57;;;;;;;5.35;4.88;;;22.10;92.50;;;;;;2080293;28;20057;-69
2022/06/11 04:46:58;;;;;;;5.03;4.53;;;22.30;91.80;;;;;;2080354;28;20036;-70
2022/06/11 04:47:59;;;;;;;7.10;4.72;;;22.50;90.90;;;;;;2089298;28;20057;-70
2022/06/11 04:48:59;;;;;;;6.38;4.53;;;22.60;89.80;;;;;;2089206;28;20423;-69
2022/06/11 04:50:02;;;;;;;7.30;4.70;;;22.80;88.90;;;;;;2088915;28;20476;-69
2022/06/11 04:51:03;;;;;;;5.32;4.50;;;22.90;86.90;;;;;;2088989;28;20040;-70
2022/06/11 04:52:04;;;;;;;5.75;4.60;;;23.10;85.70;;;;;;2088966;28;20496;-69
2022/06/11 04:53:06;;;;;;;6.35;4.15;;;23.20;84.60;;;;;;2088703;28;20021;-70
2022/06/11 04:54:07;;;;;;;4.85;4.43;;;23.30;83.50;;;;;;2088908;28;20039;-69
2022/06/11 04:55:08;;;;;;;5.40;4.70;;;23.40;82.30;;;;;;2088967;28;20837;-70
2022/06/11 04:56:14;;;;;;;4.93;4.35;;;23.30;81.60;;;;;;2088934;28;20025;-70
2022/06/11 04:57:15;;;;;;;4.70;4.30;;;23.40;81.20;;;;;;2080088;28;20102;-70
2022/06/11 04:58:16;;;;;;;4.85;4.45;;;23.60;80.20;;;;;;2080445;28;20024;-70
2022/06/11 04:59:17;;;;;;;5.38;4.43;;;23.70;79.10;;;;;;2089094;28;20428;-69
2022/06/11 05:00:22;;;;;;;5.18;4.68;;;23.90;79.20;;;;;;2088990;28;20025;-70
2022/06/11 05:01:24;;;;;;;5.90;4.50;;;23.90;77.20;;;;;;2089193;28;20116;-69
2022/06/11 05:02:25;;;;;;;5.30;4.80;;;24.00;76.70;;;;;;2088728;28;20045;-68
2022/06/11 05:03:26;;;;;;;4.60;4.20;;;24.00;75.50;;;;;;2088904;28;20074;-69
2022/06/11 05:04:27;;;;;;;5.68;4.20;;;24.00;75.00;;;;;;2079984;28;20112;-68
2022/06/11 05:05:27;;;;;;;5.07;4.50;;;24.00;75.40;;;;;;2080227;28;20029;-68
2022/06/11 05:06:32;;;;;;;6.38;4.50;;;24.00;74.10;;;;;;2089078;28;20037;-69
2022/06/11 05:07:36;;;;;;;6.13;4.45;;;24.10;74.00;;;;;;2089857;28;20100;-69
2022/06/11 05:08:37;;;;;;;4.80;4.40;;;24.20;73.80;;;;;;2089809;28;20056;-68
2022/06/11 05:09:37;;;;;;;5.35;4.50;;;24.30;73.10;;;;;;2089685;28;20067;-68
2022/06/11 05:10:39;;;;;;;6.03;4.10;;;24.30;72.60;;;;;;2090063;28;20074;-68
2022/06/11 05:11:40;;;;;;;5.55;4.32;;;24.40;72.50;;;;;;2089711;28;20059;-69
2022/06/11 05:12:40;;;;;;;5.53;4.20;;;24.40;71.70;;;;;;2089277;28;20029;-69
2022/06/11 05:13:41;;;;;;;5.75;4.32;;;24.50;71.80;;;;;;2089868;28;20027;-71
2022/06/11 05:14:42;;;;;;;4.30;3.90;;;24.60;71.20;;;;;;2089701;28;20032;-69
2022/06/11 05:15:49;;;;;;;4.53;4.07;;;24.60;70.50;;;;;;2089737;28;20594;-70
2022/06/11 05:16:49;;;;;;;6.10;4.60;;;24.70;70.50;;;;;;2089614;28;20612;-69
2022/06/11 05:17:50;;;;;;;4.80;4.30;;;24.70;69.20;;;;;;2089480;28;20029;-69
2022/06/11 05:18:51;;;;;;;4.90;4.00;;;24.70;69.00;;;;;;2089301;28;20036;-69
2022/06/11 05:19:52;;;;;;;7.63;4.25;;;24.70;69.10;;;;;;2089011;28;20025;-70
2022/06/11 05:20:53;;;;;;;4.30;3.90;;;24.80;68.80;;;;;;2089001;28;20502;-69
2022/06/11 05:21:54;;;;;;;5.82;4.20;;;24.90;68.40;;;;;;2088852;28;20061;-69
2022/06/11 05:22:55;;;;;;;5.03;4.00;;;25.00;68.10;;;;;;2088550;28;20025;-69
2022/06/11 05:23:55;;;;;;;4.55;3.92;;;25.00;67.70;;;;;;2088743;28;20462;-69
2022/06/11 05:24:56;;;;;;;4.20;3.80;;;25.00;67.60;;;;;;2088792;28;20064;-69
2022/06/11 05:25:57;;;;;;;5.93;3.97;;;25.10;67.10;;;;;;2088507;28;20438;-69
2022/06/11 05:27:06;;;;;;;6.65;4.20;;;25.20;66.70;;;;;;2088789;28;20119;-69
2022/06/11 05:28:13;;;;;;;4.40;3.97;;;25.20;65.90;;;;;;2088718;28;20032;-69
2022/06/11 05:29:27;;;;;;;6.93;4.10;;;25.20;65.70;;;;;;2079960;28;20108;-69
2022/06/11 05:30:31;;;;;;;4.65;4.20;;;25.20;65.70;;;;;;2073481;28;20026;-68
2022/06/11 05:31:32;;;;;;;4.55;4.15;;;25.20;66.00;;;;;;2072028;28;20156;-69
2022/06/11 05:32:36;;;;;;;4.70;3.80;;;25.20;65.00;;;;;;2071545;28;20550;-69
2022/06/11 05:33:37;;;;;;;4.35;3.95;;;25.30;65.30;;;;;;2081150;28;20045;-69
2022/06/11 05:34:39;;;;;;;4.78;4.20;;;25.30;65.00;;;;;;2097183;28;20055;-69
2022/06/11 05:35:40;;;;;;;5.63;4.10;;;25.40;64.70;;;;;;2097164;28;20159;-70
2022/06/11 05:36:41;;;;;;;4.78;3.95;;;25.40;64.60;;;;;;2097252;28;20828;-69
2022/06/11 05:37:42;;;;;;;4.97;3.80;;;25.50;64.60;;;;;;2097310;28;20056;-70
2022/06/11 05:38:42;;;;;;;5.15;3.85;;;25.60;64.30;;;;;;2094408;28;20061;-69
2022/06/11 05:39:46;;;;;;;6.28;3.75;;;25.70;63.90;;;;;;2097206;28;20043;-70
2022/06/11 05:40:49;;;;;;;5.03;4.25;;;25.70;63.60;;;;;;2088343;28;20112;-69
2022/06/11 05:41:50;;;;;;;4.30;3.90;;;25.80;63.20;;;;;;2088393;28;20060;-70
2022/06/11 05:42:51;;;;;;;4.40;4.00;;;25.80;63.00;;;;;;2096751;28;20024;-73
2022/06/11 05:43:51;;;;;;;4.15;3.75;;;25.80;62.60;;;;;;2097129;28;20037;-70
2022/06/11 05:44:53;;;;;;;4.20;3.80;;;25.80;62.60;;;;;;2088191;28;20021;-70